Bendfeld, Germany

7:09 PM CET on February 25, 2017 (GMT +0100)
Alte Meierei | | Change Station

Elev 0 ft 54.32 °N, 10.50 °E | Updated 2 minutes ago

Overcast
Overcast
36.7 °F
Feels Like 37 °F
N
1.9
Wind Variable Wind from SE
Gusts 9.3 mph

Today
High -- | Low -- °F
--% Chance of Precip.
Yesterday
High -- | Low -- °F
Precip. -- in
Pressure 29.80 in
Visibility 5.0 miles
Clouds Few 1100 ft
Mostly Cloudy 2300 ft
Windchill 37 °F
Dew Point 36 °F
Humidity 97%
Rainfall 0.04 in
Snow Depth Not available.
7:16 AM 5:47 PM
Waning Crescent, 1% visible
SPECI ETNH 251741Z 20015G29KT 8000 FEW011 BKN023 04/02 Q1009 WHT
Pressure 29.80 in
Visibility 5.0 miles
Clouds Few 1100 ft
Mostly Cloudy 2300 ft
Windchill 37 °F
Dew Point 36 °F
Humidity 97%
Rainfall 0.04 in
Snow Depth Not available.
7:16 AM 5:47 PM
Waning Crescent, 1% visible
SPECI ETNH 251741Z 20015G29KT 8000 FEW011 BKN023 04/02 Q1009 WHT

Get Your Daily Forecast Email!

Thanks for signing up!

Be on the lookout for a verification email in your inbox.

You'll start receiving the daily forecast at 8 AM.

×

10-Day Weather Forecast

×

Almanac

Astronomy

Feb. 25, 2017 Rise Set
Actual Time
Civil Twilight
Nautical Twilight
Astronomical Twilight
Moon
Length of Visible Light
Length of Day
Tomorrow will be .
, % of the Moon is Illuminated

Today's Extremes

Country Highs Country Lows

Community

WunderPhotos

Upload Photos

1,962,540 photos uploaded!

WunderBlog® & News

Nearby

Air Quality

  Air Quality AQ Index Pollutant
Not available.

Snow Depth

Station Depth Elevation

Earthquake Activity

City Distance Mag. Time & Date
Minimum magnitude displayed is 2.5.

Coastal Water Temperatures

Place Temperature

Stations

Nearby Weather Stations

Station Location Temp. Windchill Dew Point Humidity Wind Precip. Elev Updated Type